Time;durP1;ratioP1;P1;durP2;ratioP2;P2;SDS_P1;SDS_P2;PMS_P1;PMS_P2;Temp;Humidity;BMP_temperature;BMP_pressure;BME280_temperature;BME280_humidity;BME280_pressure;Samples;Min_cycle;Max_cycle;Signal;HPM_P1;HPM_P2
2024/04/19 00:01:55;;;;;;;1.77;1.67;;;10.10;99.90;;;;;;5488634;26;20446;-61
2024/04/19 00:04:21;;;;;;;1.83;1.67;;;10.10;99.90;;;;;;5488458;26;20435;-61
2024/04/19 00:06:50;;;;;;;1.50;1.40;;;10.10;99.90;;;;;;5488674;26;20506;-61
2024/04/19 00:09:15;;;;;;;1.30;1.20;;;10.00;99.90;;;;;;5488489;26;20210;-62
2024/04/19 00:11:44;;;;;;;1.93;1.40;;;10.00;99.90;;;;;;5488374;26;20499;-62
2024/04/19 00:14:12;;;;;;;1.33;1.23;;;10.00;99.90;;;;;;5488265;26;20680;-62
2024/04/19 00:16:40;;;;;;;1.93;1.10;;;10.00;99.90;;;;;;5488635;26;20446;-64
2024/04/19 00:19:06;;;;;;;1.77;1.57;;;10.00;99.90;;;;;;5490625;26;20447;-62
2024/04/19 00:21:34;;;;;;;1.57;1.37;;;10.00;99.90;;;;;;5491938;26;20447;-62
2024/04/19 00:23:59;;;;;;;2.47;1.40;;;10.00;99.90;;;;;;5492009;26;20214;-62
2024/04/19 00:26:27;;;;;;;2.20;1.20;;;10.00;99.90;;;;;;5491978;26;20498;-62
2024/04/19 00:28:53;;;;;;;2.33;1.57;;;10.00;99.90;;;;;;5491882;26;20226;-62
2024/04/19 00:31:24;;;;;;;2.83;1.60;;;10.10;99.90;;;;;;5491851;26;20533;-62
2024/04/19 00:33:50;;;;;;;1.40;1.17;;;10.10;99.90;;;;;;5491808;26;20942;-62
2024/04/19 00:36:18;;;;;;;2.47;1.20;;;10.10;99.90;;;;;;5491903;26;20439;-62
2024/04/19 00:38:43;;;;;;;1.53;1.20;;;10.20;99.90;;;;;;5491804;26;20222;-62
2024/04/19 00:41:12;;;;;;;1.60;1.50;;;10.10;99.90;;;;;;5491855;26;20447;-62
2024/04/19 00:43:37;;;;;;;1.30;1.10;;;10.10;99.90;;;;;;5491922;26;20218;-62
2024/04/19 00:46:06;;;;;;;1.30;1.20;;;10.10;99.90;;;;;;5491645;26;20446;-62
2024/04/19 00:48:35;;;;;;;1.77;1.27;;;10.10;99.90;;;;;;5491704;26;20305;-62
2024/04/19 00:51:06;;;;;;;1.40;1.30;;;10.10;99.90;;;;;;5491571;26;20503;-62
2024/04/19 00:53:33;;;;;;;2.20;1.70;;;10.00;99.90;;;;;;5492034;26;20455;-62
2024/04/19 00:56:03;;;;;;;2.47;1.27;;;10.00;99.90;;;;;;5491394;26;20907;-62
2024/04/19 00:58:29;;;;;;;2.60;1.33;;;10.00;99.90;;;;;;5491506;26;20451;-62
2024/04/19 01:01:04;;;;;;;2.00;1.50;;;9.90;99.90;;;;;;5491517;26;20517;-62
2024/04/19 01:03:29;;;;;;;1.50;1.40;;;9.90;99.90;;;;;;5491261;26;20454;-62
2024/04/19 01:06:00;;;;;;;1.60;1.47;;;9.90;99.90;;;;;;5491459;26;20443;-62
2024/04/19 01:08:26;;;;;;;2.07;1.50;;;9.90;99.90;;;;;;5491315;26;20214;-62
2024/04/19 01:10:55;;;;;;;1.43;1.33;;;9.80;99.90;;;;;;5491203;26;20447;-62
2024/04/19 01:13:20;;;;;;;1.50;1.20;;;9.80;99.90;;;;;;5491153;26;20546;-62
2024/04/19 01:15:49;;;;;;;3.83;1.50;;;9.90;99.90;;;;;;5491206;26;20500;-62
2024/04/19 01:18:14;;;;;;;1.97;1.67;;;9.90;99.90;;;;;;5491283;26;20301;-62
2024/04/19 01:20:42;;;;;;;2.70;1.30;;;9.90;99.90;;;;;;5491196;26;20443;-62
2024/04/19 01:23:11;;;;;;;3.83;2.57;;;9.90;99.90;;;;;;5491111;26;20210;-62
2024/04/19 01:25:40;;;;;;;2.30;1.60;;;9.90;99.90;;;;;;5491075;26;21022;-62
2024/04/19 01:28:10;;;;;;;2.80;1.70;;;9.90;99.90;;;;;;5491083;26;20467;-62
2024/04/19 01:30:40;;;;;;;4.20;1.60;;;9.90;99.90;;;;;;5490280;26;20452;-63
2024/04/19 01:33:06;;;;;;;2.20;1.37;;;9.90;99.90;;;;;;5491429;26;20439;-62
2024/04/19 01:35:34;;;;;;;2.67;1.40;;;9.90;99.90;;;;;;5491128;26;20499;-62
2024/04/19 01:38:00;;;;;;;1.70;1.60;;;9.90;99.90;;;;;;5490814;26;20248;-62
2024/04/19 01:40:28;;;;;;;3.37;1.30;;;9.90;99.90;;;;;;5490913;26;20450;-62
2024/04/19 01:42:54;;;;;;;1.80;1.67;;;9.90;99.90;;;;;;5491135;26;20248;-63
2024/04/19 01:45:24;;;;;;;1.67;1.50;;;9.90;99.90;;;;;;5491189;26;20808;-62
2024/04/19 01:47:50;;;;;;;2.10;1.40;;;9.90;99.90;;;;;;5490745;26;20218;-62
2024/04/19 01:50:18;;;;;;;1.50;1.40;;;9.70;99.90;;;;;;5490786;26;20493;-62
2024/04/19 01:52:46;;;;;;;4.80;3.40;;;9.70;99.90;;;;;;5490616;26;20543;-62
2024/04/19 01:55:14;;;;;;;2.20;1.50;;;9.70;99.90;;;;;;5490496;26;20917;-62
2024/04/19 01:57:40;;;;;;;2.03;1.50;;;9.70;99.90;;;;;;5490961;26;20447;-62
2024/04/19 02:00:09;;;;;;;5.20;1.37;;;9.70;99.90;;;;;;5490823;26;20451;-62
2024/04/19 02:02:38;;;;;;;2.20;2.00;;;9.70;99.90;;;;;;5490574;26;20206;-62
2024/04/19 02:05:06;;;;;;;2.07;1.30;;;9.70;99.90;;;;;;5490497;26;20448;-62
2024/04/19 02:07:34;;;;;;;1.50;1.40;;;9.70;99.90;;;;;;5490533;26;20450;-62
2024/04/19 02:10:00;;;;;;;2.87;1.90;;;9.70;99.90;;;;;;5490467;26;20455;-62
2024/04/19 02:12:28;;;;;;;1.87;1.60;;;9.70;99.90;;;;;;5490380;26;20499;-62
2024/04/19 02:14:54;;;;;;;2.37;1.47;;;9.70;99.90;;;;;;5490418;26;20253;-62
2024/04/19 02:17:22;;;;;;;1.83;1.73;;;9.70;99.90;;;;;;5490449;26;20459;-62
2024/04/19 02:19:50;;;;;;;2.17;1.40;;;9.80;99.90;;;;;;5490068;26;20214;-62
2024/04/19 02:22:18;;;;;;;1.93;1.83;;;9.80;99.90;;;;;;5490285;26;20451;-62
2024/04/19 02:24:44;;;;;;;2.13;1.77;;;9.80;99.90;;;;;;5490275;26;20451;-62
2024/04/19 02:30:51;;;;;;;2.60;1.73;;;9.70;99.90;;;;;;5490194;26;20491;-62
2024/04/19 02:32:44;;;;;;;1.77;1.67;;;9.60;99.90;;;;;;5492730;26;20529;-62
2024/04/19 02:35:15;;;;;;;2.77;2.13;;;9.50;99.90;;;;;;5489999;26;21013;-62
2024/04/19 02:37:43;;;;;;;2.23;1.60;;;9.50;99.90;;;;;;5490019;26;20500;-62
2024/04/19 02:40:12;;;;;;;3.37;2.00;;;9.40;99.90;;;;;;5490086;26;20491;-62
2024/04/19 02:42:37;;;;;;;1.80;1.70;;;9.40;99.90;;;;;;5489720;26;20454;-62
2024/04/19 02:45:06;;;;;;;1.70;1.60;;;9.40;99.90;;;;;;5489986;26;20498;-62
2024/04/19 02:47:36;;;;;;;2.07;1.90;;;9.30;99.90;;;;;;5489888;26;20218;-62
2024/04/19 02:50:04;;;;;;;3.20;2.43;;;9.30;99.90;;;;;;5489814;26;20491;-62
2024/04/19 02:52:35;;;;;;;2.50;1.87;;;9.20;99.90;;;;;;5489711;26;20463;-63
2024/04/19 02:55:03;;;;;;;2.37;2.20;;;9.20;99.90;;;;;;5489718;26;20520;-62
2024/04/19 02:57:31;;;;;;;4.77;1.97;;;9.20;99.90;;;;;;5489795;26;20985;-62
2024/04/19 02:59:59;;;;;;;3.50;2.10;;;9.20;99.90;;;;;;5489735;26;20499;-62
2024/04/19 03:02:27;;;;;;;2.57;1.50;;;9.20;99.90;;;;;;5489640;26;20439;-62
2024/04/19 03:04:55;;;;;;;3.57;1.67;;;9.00;99.90;;;;;;5489660;26;20443;-62
2024/04/19 03:07:21;;;;;;;1.77;1.67;;;9.00;99.90;;;;;;5489866;26;20442;-62
2024/04/19 03:09:52;;;;;;;3.47;2.10;;;8.90;99.90;;;;;;5489906;26;20495;-62
2024/04/19 03:12:20;;;;;;;1.80;1.70;;;8.90;99.90;;;;;;5489698;26;20666;-62
2024/04/19 03:14:48;;;;;;;2.23;2.10;;;8.80;99.90;;;;;;5489351;26;20503;-62
2024/04/19 03:17:16;;;;;;;2.33;2.07;;;8.80;99.90;;;;;;5489411;26;20439;-62
2024/04/19 03:19:44;;;;;;;2.83;2.07;;;8.80;99.90;;;;;;5489358;26;21011;-62
2024/04/19 03:22:13;;;;;;;1.97;1.87;;;8.80;99.90;;;;;;5489241;26;20477;-62
2024/04/19 03:24:41;;;;;;;2.03;1.93;;;8.70;99.90;;;;;;5489270;26;20478;-62
2024/04/19 03:27:11;;;;;;;2.37;2.17;;;8.90;99.90;;;;;;5489306;26;20495;-62
2024/04/19 03:29:40;;;;;;;1.93;1.63;;;8.90;99.90;;;;;;5489229;26;20477;-62
2024/04/19 03:32:08;;;;;;;5.47;2.13;;;8.90;99.90;;;;;;5489219;26;20439;-62
2024/04/19 03:34:36;;;;;;;1.90;1.70;;;8.90;99.90;;;;;;5489044;26;20431;-62
2024/04/19 03:37:05;;;;;;;2.80;1.90;;;9.00;99.90;;;;;;5489517;26;20447;-62
2024/04/19 03:39:33;;;;;;;3.90;2.10;;;9.00;99.90;;;;;;5489054;26;20447;-62
2024/04/19 03:42:02;;;;;;;2.07;1.77;;;8.90;99.90;;;;;;5489012;26;21005;-62
2024/04/19 03:47:17;;;;;;;2.63;2.43;;;8.90;99.90;;;;;;5491742;26;20511;-62
2024/04/19 03:49:45;;;;;;;3.07;2.40;;;8.70;99.90;;;;;;5488709;26;20502;-62
2024/04/19 03:52:13;;;;;;;2.50;2.23;;;8.80;99.90;;;;;;5488609;26;20491;-62
2024/04/19 03:54:41;;;;;;;2.47;2.03;;;8.70;99.90;;;;;;5491574;26;20511;-62
2024/04/19 03:57:09;;;;;;;2.40;1.70;;;8.70;99.90;;;;;;5492777;26;20435;-62
2024/04/19 03:59:41;;;;;;;3.30;2.03;;;8.70;99.90;;;;;;5492804;26;20945;-62
2024/04/19 04:02:09;;;;;;;2.83;2.40;;;8.70;99.90;;;;;;5492631;26;20499;-62
2024/04/19 04:04:37;;;;;;;2.90;2.70;;;8.70;99.90;;;;;;5492585;26;20816;-62
2024/04/19 04:07:05;;;;;;;2.43;2.23;;;8.60;99.90;;;;;;5492233;26;20455;-62
2024/04/19 04:09:33;;;;;;;4.13;2.20;;;8.60;99.90;;;;;;5492188;26;20491;-62
2024/04/19 04:12:01;;;;;;;5.63;2.80;;;8.60;99.90;;;;;;5492130;26;20487;-62
2024/04/19 04:14:29;;;;;;;7.40;2.57;;;8.50;99.90;;;;;;5492004;26;20828;-62
2024/04/19 04:17:00;;;;;;;3.27;2.77;;;8.40;99.90;;;;;;5492120;26;20499;-62
2024/04/19 04:19:28;;;;;;;4.03;2.53;;;8.50;99.90;;;;;;5492494;26;20487;-62
2024/04/19 04:21:57;;;;;;;3.80;2.50;;;8.60;99.90;;;;;;5492554;26;20447;-62
2024/04/19 04:24:27;;;;;;;5.47;2.60;;;8.60;99.90;;;;;;5491938;26;20439;-62
2024/04/19 04:26:55;;;;;;;2.60;2.40;;;8.60;99.90;;;;;;5491845;26;20446;-62
2024/04/19 04:29:24;;;;;;;2.23;2.03;;;8.70;99.90;;;;;;5491785;26;20490;-62
2024/04/19 04:31:52;;;;;;;4.53;2.73;;;8.60;99.90;;;;;;5491722;26;20455;-62
2024/04/19 04:34:23;;;;;;;3.00;2.57;;;8.70;99.90;;;;;;5491692;26;20454;-62
2024/04/19 04:36:52;;;;;;;3.90;3.60;;;8.70;99.90;;;;;;5491818;26;20448;-62
2024/04/19 04:39:20;;;;;;;2.70;2.50;;;8.60;99.90;;;;;;5491696;26;20840;-62
2024/04/19 04:41:48;;;;;;;3.83;2.90;;;8.80;99.90;;;;;;5491576;26;20439;-62
2024/04/19 04:44:16;;;;;;;4.90;2.47;;;8.80;99.90;;;;;;5491787;26;20525;-62
2024/04/19 04:46:44;;;;;;;4.63;3.27;;;8.90;99.90;;;;;;5491603;26;20544;-62
2024/04/19 04:49:12;;;;;;;3.00;2.80;;;8.90;99.90;;;;;;5491477;26;20447;-62
2024/04/19 04:51:41;;;;;;;2.87;2.70;;;8.90;99.90;;;;;;5491365;26;20446;-62
2024/04/19 04:54:09;;;;;;;3.40;3.10;;;8.90;99.90;;;;;;5491216;26;20499;-62
2024/04/19 04:56:37;;;;;;;3.53;3.33;;;8.90;99.90;;;;;;5491518;26;21014;-62
2024/04/19 04:59:05;;;;;;;4.80;3.30;;;8.80;99.90;;;;;;5491426;26;20447;-62
2024/04/19 05:01:33;;;;;;;3.10;2.90;;;8.80;99.90;;;;;;5491338;26;20443;-62
2024/04/19 05:04:01;;;;;;;32.20;7.20;;;8.80;99.90;;;;;;5490839;26;20447;-62
2024/04/19 05:06:30;;;;;;;4.10;3.70;;;8.90;99.90;;;;;;5490238;26;20454;-63
2024/04/19 05:09:00;;;;;;;3.90;3.60;;;9.00;99.90;;;;;;5491323;26;20510;-62
2024/04/19 05:11:28;;;;;;;4.40;3.30;;;8.90;99.90;;;;;;5491188;26;21009;-62
2024/04/19 05:13:56;;;;;;;3.60;3.10;;;8.80;99.90;;;;;;5491153;26;20443;-62
2024/04/19 05:16:25;;;;;;;4.73;3.10;;;8.90;99.90;;;;;;5491088;26;20451;-62
2024/04/19 05:18:54;;;;;;;3.93;3.53;;;9.00;99.90;;;;;;5491015;26;20447;-62
2024/04/19 05:21:22;;;;;;;6.93;3.43;;;8.90;99.90;;;;;;5491064;26;20804;-62
2024/04/19 05:23:50;;;;;;;5.40;3.73;;;8.90;99.90;;;;;;5491080;26;20451;-62
2024/04/19 05:26:21;;;;;;;4.30;3.43;;;8.90;99.90;;;;;;5491059;26;20495;-62
2024/04/19 05:28:49;;;;;;;3.20;2.90;;;8.90;99.90;;;;;;5491077;26;20447;-62
2024/04/19 05:31:17;;;;;;;3.90;3.60;;;8.90;99.90;;;;;;5490645;26;20962;-62
2024/04/19 05:33:45;;;;;;;4.27;3.37;;;9.00;99.90;;;;;;5490727;26;20506;-62
2024/04/19 05:36:13;;;;;;;6.03;3.23;;;9.10;99.90;;;;;;5490850;26;20454;-62
2024/04/19 05:38:41;;;;;;;6.73;3.50;;;9.20;99.90;;;;;;5490761;26;20479;-62
2024/04/19 05:41:09;;;;;;;4.90;3.50;;;9.10;99.90;;;;;;5490768;26;20455;-62
2024/04/19 05:43:40;;;;;;;4.93;3.57;;;9.10;99.90;;;;;;5490485;26;20443;-62
2024/04/19 05:46:08;;;;;;;4.30;4.00;;;9.00;99.90;;;;;;5490595;26;20439;-62
2024/04/19 05:48:37;;;;;;;4.83;4.37;;;9.00;99.90;;;;;;5490646;26;21018;-62
2024/04/19 05:51:05;;;;;;;4.27;3.90;;;8.90;99.90;;;;;;5490436;26;20443;-62
2024/04/19 05:53:33;;;;;;;6.40;4.27;;;9.00;99.90;;;;;;5490318;26;20815;-62
2024/04/19 05:56:01;;;;;;;4.60;4.20;;;9.10;99.90;;;;;;5490458;26;20471;-62
2024/04/19 05:58:30;;;;;;;4.53;4.10;;;9.30;99.90;;;;;;5490370;26;20443;-62
2024/04/19 06:01:00;;;;;;;7.43;4.30;;;9.40;99.90;;;;;;5490514;26;20442;-62
2024/04/19 06:03:29;;;;;;;4.97;3.80;;;9.40;99.90;;;;;;5490522;26;20454;-62
2024/04/19 06:05:57;;;;;;;4.20;3.90;;;9.40;99.90;;;;;;5490494;26;20447;-62
2024/04/19 06:08:25;;;;;;;4.53;4.13;;;9.30;99.90;;;;;;5490182;26;20774;-62
2024/04/19 06:10:53;;;;;;;3.57;3.27;;;9.40;99.90;;;;;;5490004;26;20446;-62
2024/04/19 06:13:21;;;;;;;3.53;3.33;;;9.40;99.90;;;;;;5490444;26;20447;-62
2024/04/19 06:15:50;;;;;;;4.17;3.77;;;9.60;99.90;;;;;;5489657;26;20488;-62
2024/04/19 06:18:20;;;;;;;3.90;3.60;;;9.50;99.90;;;;;;5490666;26;20439;-62
2024/04/19 06:20:48;;;;;;;4.20;3.47;;;9.40;99.90;;;;;;5490352;26;20455;-62
2024/04/19 06:23:17;;;;;;;3.70;3.40;;;9.40;99.90;;;;;;5490169;26;20772;-62
2024/04/19 06:25:45;;;;;;;7.10;3.60;;;9.40;99.90;;;;;;5490124;26;20439;-62
2024/04/19 06:28:13;;;;;;;3.97;3.63;;;9.30;99.90;;;;;;5490205;26;20447;-62
2024/04/19 06:30:41;;;;;;;5.37;4.47;;;9.50;99.90;;;;;;5489885;26;20442;-62
2024/04/19 06:33:09;;;;;;;4.53;3.40;;;9.60;99.90;;;;;;5489982;26;20451;-62
2024/04/19 06:35:40;;;;;;;5.30;4.53;;;9.70;99.90;;;;;;5490026;26;20550;-62
2024/04/19 06:38:08;;;;;;;4.60;4.10;;;9.70;99.90;;;;;;5489975;26;20489;-62
2024/04/19 06:40:37;;;;;;;9.47;3.90;;;9.70;99.90;;;;;;5490013;26;20451;-62
2024/04/19 06:43:06;;;;;;;4.53;4.23;;;9.60;99.90;;;;;;5489707;26;20948;-62
2024/04/19 06:45:37;;;;;;;4.40;4.00;;;9.40;99.90;;;;;;5489886;26;20768;-62
2024/04/19 06:48:06;;;;;;;5.17;4.67;;;9.30;99.90;;;;;;5489807;26;20439;-62
2024/04/19 06:50:34;;;;;;;6.53;4.77;;;9.30;99.90;;;;;;5489759;26;20447;-62
2024/04/19 06:53:05;;;;;;;5.37;4.40;;;9.30;99.90;;;;;;5489476;26;20507;-62
2024/04/19 06:55:34;;;;;;;5.90;5.50;;;9.00;99.90;;;;;;5489353;26;20459;-62
2024/04/19 06:58:02;;;;;;;6.10;5.50;;;8.80;99.90;;;;;;5488808;26;20505;-62
2024/04/19 07:00:30;;;;;;;8.27;4.97;;;8.90;99.90;;;;;;5489079;26;20856;-62
2024/04/19 07:02:58;;;;;;;8.73;5.80;;;8.80;99.90;;;;;;5487132;26;20518;-61
2024/04/19 07:05:28;;;;;;;5.87;5.30;;;8.80;99.90;;;;;;5488358;26;20501;-61
2024/04/19 07:07:56;;;;;;;4.83;4.33;;;8.90;99.90;;;;;;5488287;26;20455;-62
2024/04/19 07:10:27;;;;;;;4.60;3.03;;;9.00;99.90;;;;;;5487342;26;20459;-62
2024/04/19 07:12:55;;;;;;;3.77;3.47;;;8.90;99.90;;;;;;5487724;26;20514;-62
2024/04/19 07:15:23;;;;;;;5.10;3.20;;;8.70;99.90;;;;;;5486790;26;20570;-62
2024/04/19 07:17:52;;;;;;;3.17;2.97;;;8.70;99.90;;;;;;5485139;26;20519;-62
2024/04/19 07:20:21;;;;;;;3.70;3.40;;;8.70;99.90;;;;;;5488025;26;20459;-61
2024/04/19 07:22:49;;;;;;;3.90;3.50;;;8.60;99.90;;;;;;5484581;26;20928;-61
2024/04/19 07:25:17;;;;;;;3.50;3.30;;;8.50;99.90;;;;;;5487969;26;20459;-62
2024/04/19 07:27:48;;;;;;;3.77;3.47;;;8.60;99.90;;;;;;5486424;26;20990;-61
2024/04/19 07:30:16;;;;;;;4.00;3.53;;;8.60;99.90;;;;;;5487282;26;20455;-62
2024/04/19 07:32:44;;;;;;;3.50;3.20;;;8.60;99.90;;;;;;5487864;26;21045;-61
2024/04/19 07:35:13;;;;;;;3.13;2.93;;;8.60;99.90;;;;;;5483386;26;20462;-62
2024/04/19 07:37:41;;;;;;;3.93;3.60;;;8.40;99.90;;;;;;5487811;26;20462;-62
2024/04/19 07:40:10;;;;;;;2.70;2.50;;;8.60;99.90;;;;;;5487642;26;20451;-62
2024/04/19 07:42:38;;;;;;;3.50;3.23;;;8.60;99.90;;;;;;5487811;26;20791;-62
2024/04/19 07:45:07;;;;;;;2.63;2.43;;;8.60;99.90;;;;;;5487527;26;20572;-62
2024/04/19 07:47:36;;;;;;;3.57;3.37;;;8.70;99.90;;;;;;5483969;26;20504;-62
2024/04/19 07:50:04;;;;;;;4.70;3.37;;;8.60;99.90;;;;;;5487333;26;20525;-62
2024/04/19 07:52:32;;;;;;;3.43;3.23;;;8.60;99.90;;;;;;5487336;26;20463;-62
2024/04/19 07:55:00;;;;;;;3.40;2.97;;;8.70;99.90;;;;;;5487424;26;20487;-62
2024/04/19 07:57:28;;;;;;;3.70;3.40;;;8.70;99.90;;;;;;5487241;26;20451;-62
2024/04/19 07:59:56;;;;;;;4.03;3.57;;;8.80;99.90;;;;;;5487369;26;20459;-62
2024/04/19 08:02:27;;;;;;;4.87;3.47;;;8.80;99.90;;;;;;5487266;26;20520;-62
2024/04/19 08:04:55;;;;;;;3.93;3.60;;;8.90;99.90;;;;;;5487290;26;20467;-62
2024/04/19 08:07:26;;;;;;;4.10;3.70;;;8.80;99.90;;;;;;5487711;26;20502;-62
2024/04/19 08:09:54;;;;;;;5.20;4.03;;;8.70;99.90;;;;;;5488036;26;20544;-62
2024/04/19 08:12:22;;;;;;;6.63;4.60;;;8.80;99.90;;;;;;5488020;26;20451;-62
2024/04/19 08:14:50;;;;;;;3.63;3.23;;;8.80;99.90;;;;;;5488063;26;20488;-62
2024/04/19 08:17:18;;;;;;;5.63;4.50;;;8.70;99.90;;;;;;5488074;26;20454;-62
2024/04/19 08:19:49;;;;;;;4.57;4.10;;;8.70;99.90;;;;;;5487928;26;20459;-62
2024/04/19 08:22:18;;;;;;;7.10;6.10;;;8.80;99.90;;;;;;5488146;26;20495;-62
2024/04/19 08:24:46;;;;;;;4.10;3.80;;;8.80;99.90;;;;;;5488299;26;20447;-61
2024/04/19 08:27:14;;;;;;;4.23;3.80;;;8.80;99.90;;;;;;5488415;26;20538;-61
2024/04/19 08:29:42;;;;;;;3.87;3.40;;;8.80;99.90;;;;;;5488028;26;20443;-61
2024/04/19 08:32:11;;;;;;;4.60;4.10;;;8.70;99.90;;;;;;5487953;26;20522;-62
2024/04/19 08:34:39;;;;;;;4.40;4.00;;;8.80;99.90;;;;;;5487325;26;20451;-62
2024/04/19 08:37:10;;;;;;;5.10;4.30;;;8.90;99.90;;;;;;5487750;26;20458;-62
2024/04/19 08:39:38;;;;;;;4.30;4.00;;;8.60;99.90;;;;;;5486565;26;20848;-62
2024/04/19 08:42:08;;;;;;;3.80;3.50;;;8.50;99.90;;;;;;5490183;26;20466;-61
2024/04/19 08:44:37;;;;;;;4.47;3.90;;;8.50;99.90;;;;;;5486810;26;20514;-62
2024/04/19 08:47:07;;;;;;;5.13;4.73;;;8.60;99.90;;;;;;5490255;26;20454;-61
2024/04/19 08:49:38;;;;;;;4.47;4.10;;;8.50;99.90;;;;;;5486200;26;20519;-62
2024/04/19 08:52:10;;;;;;;4.80;4.40;;;8.50;99.90;;;;;;5490172;26;20459;-61
2024/04/19 08:54:39;;;;;;;4.77;4.40;;;8.50;99.90;;;;;;5486705;26;21033;-61
2024/04/19 08:57:07;;;;;;;5.20;4.70;;;8.60;99.90;;;;;;5490530;26;20527;-61
2024/04/19 08:59:36;;;;;;;5.37;4.97;;;8.50;99.90;;;;;;5485614;26;20489;-61
2024/04/19 09:02:04;;;;;;;5.47;5.07;;;8.60;99.90;;;;;;5490110;26;20507;-61
2024/04/19 09:04:32;;;;;;;5.87;5.27;;;8.70;99.90;;;;;;5490074;26;20478;-61
2024/04/19 09:07:00;;;;;;;6.50;5.53;;;8.60;99.90;;;;;;5489971;26;20455;-61
2024/04/19 09:09:31;;;;;;;5.13;4.70;;;8.70;99.90;;;;;;5489782;26;20855;-61
2024/04/19 09:11:59;;;;;;;5.80;5.30;;;8.70;99.90;;;;;;5487318;26;20459;-61
2024/04/19 09:14:27;;;;;;;5.30;4.70;;;8.70;99.90;;;;;;5489712;26;20455;-61
2024/04/19 09:16:56;;;;;;;5.53;5.13;;;8.80;99.90;;;;;;5490009;26;20455;-61
2024/04/19 09:19:25;;;;;;;5.07;4.67;;;8.90;99.90;;;;;;5488010;26;20471;-61
2024/04/19 09:21:54;;;;;;;8.60;5.40;;;8.80;99.90;;;;;;5487453;26;20459;-61
2024/04/19 09:24:22;;;;;;;5.37;4.97;;;8.70;99.90;;;;;;5489643;26;20471;-61
2024/04/19 09:27:01;;;;;;;8.23;5.60;;;8.80;99.90;;;;;;5489686;26;20848;-61
2024/04/19 09:29:30;;;;;;;5.83;5.43;;;8.80;99.90;;;;;;5489244;26;20505;-61
2024/04/19 09:31:59;;;;;;;7.60;5.93;;;8.80;99.90;;;;;;5489717;26;20467;-70
2024/04/19 09:34:27;;;;;;;8.10;6.00;;;8.70;99.90;;;;;;5488449;26;20523;-72
2024/04/19 09:36:55;;;;;;;6.63;6.03;;;8.80;99.90;;;;;;5489489;26;20459;-69
2024/04/19 09:39:23;;;;;;;6.77;6.07;;;8.90;99.90;;;;;;5489364;26;20519;-70
2024/04/19 09:41:54;;;;;;;6.57;5.97;;;8.90;99.90;;;;;;5486308;26;20515;-72
2024/04/19 09:44:26;;;;;;;6.70;6.00;;;9.00;99.90;;;;;;5489445;26;20466;-71
2024/04/19 09:46:58;;;;;;;6.20;5.70;;;9.10;99.90;;;;;;5486808;26;20997;-72
2024/04/19 09:49:31;;;;;;;5.90;5.50;;;9.10;99.90;;;;;;5488184;26;20470;-71
2024/04/19 09:52:00;;;;;;;7.20;6.50;;;9.20;99.90;;;;;;5488541;26;20467;-68
2024/04/19 09:54:34;;;;;;;6.70;6.10;;;9.30;99.90;;;;;;5488160;26;20475;-68
2024/04/19 09:57:07;;;;;;;6.70;6.20;;;9.30;99.90;;;;;;5490199;26;20566;-67
2024/04/19 09:59:36;;;;;;;6.10;5.50;;;9.30;99.90;;;;;;5490538;26;20816;-67
2024/04/19 10:02:05;;;;;;;6.20;5.70;;;9.20;99.90;;;;;;5490462;26;21003;-67
2024/04/19 10:04:35;;;;;;;6.17;5.77;;;9.10;99.90;;;;;;5490384;26;20438;-67
2024/04/19 10:07:04;;;;;;;6.10;5.70;;;9.10;99.90;;;;;;5490066;26;21142;-67
2024/04/19 10:09:33;;;;;;;6.07;5.63;;;9.00;99.90;;;;;;5490189;26;20427;-68
2024/04/19 10:12:02;;;;;;;6.30;5.80;;;9.10;99.90;;;;;;5490469;26;20446;-68
2024/04/19 10:14:34;;;;;;;5.47;4.97;;;9.10;99.90;;;;;;5488948;26;20459;-68
2024/04/19 10:17:02;;;;;;;5.63;5.23;;;9.00;99.90;;;;;;5490260;26;20450;-68
2024/04/19 10:19:33;;;;;;;5.00;4.60;;;9.10;99.90;;;;;;5490252;26;20459;-68
2024/04/19 10:22:02;;;;;;;5.60;5.20;;;9.10;99.90;;;;;;5490228;26;20419;-68
2024/04/19 10:24:32;;;;;;;5.70;5.13;;;9.20;99.90;;;;;;5489911;26;20503;-68
2024/04/19 10:27:00;;;;;;;6.13;5.70;;;9.20;99.90;;;;;;5489913;26;20463;-68
2024/04/19 10:29:30;;;;;;;5.70;5.30;;;9.10;99.90;;;;;;5489790;26;20446;-68
2024/04/19 10:32:01;;;;;;;4.83;4.53;;;9.10;99.90;;;;;;5490043;26;20471;-68
2024/04/19 10:34:29;;;;;;;6.17;5.67;;;9.10;99.90;;;;;;5490042;26;20471;-69
2024/04/19 10:36:58;;;;;;;5.93;5.13;;;9.10;99.90;;;;;;5489783;26;20443;-69
2024/04/19 10:39:26;;;;;;;4.77;4.47;;;9.10;99.90;;;;;;5489870;26;20488;-68
2024/04/19 10:41:55;;;;;;;5.57;5.07;;;9.10;99.90;;;;;;5489784;26;20491;-67
2024/04/19 10:44:26;;;;;;;4.10;3.90;;;9.10;99.90;;;;;;5489924;26;20500;-69
2024/04/19 10:46:55;;;;;;;4.67;4.27;;;9.20;99.90;;;;;;5489769;26;21014;-68
2024/04/19 10:49:26;;;;;;;3.97;3.77;;;9.20;99.90;;;;;;5489688;26;20768;-68
2024/04/19 10:51:54;;;;;;;4.90;4.50;;;9.20;99.90;;;;;;5489871;26;20529;-68
2024/04/19 10:54:22;;;;;;;8.60;4.80;;;9.10;99.90;;;;;;5489571;26;20462;-69
2024/04/19 10:56:51;;;;;;;4.23;3.90;;;9.20;99.90;;;;;;5489647;26;20451;-69
2024/04/19 10:59:20;;;;;;;5.50;5.10;;;9.10;99.90;;;;;;5489689;26;20436;-69
2024/04/19 11:01:48;;;;;;;4.87;4.47;;;9.00;99.90;;;;;;5489544;26;20439;-69
2024/04/19 11:04:16;;;;;;;5.37;4.97;;;9.10;99.90;;;;;;5489495;26;20950;-69
2024/04/19 11:06:47;;;;;;;4.00;3.77;;;9.20;99.90;;;;;;5489396;26;20423;-69
2024/04/19 11:09:16;;;;;;;3.90;3.70;;;9.10;99.90;;;;;;5489283;26;20424;-68
2024/04/19 11:11:45;;;;;;;4.37;4.07;;;9.10;99.90;;;;;;5489453;26;20455;-68
2024/04/19 11:14:13;;;;;;;4.00;3.70;;;9.20;99.90;;;;;;5489399;26;20439;-69
2024/04/19 11:16:41;;;;;;;4.30;3.90;;;8.90;99.90;;;;;;5489318;26;20455;-69
2024/04/19 11:19:09;;;;;;;4.00;3.77;;;8.80;99.90;;;;;;5489414;26;20475;-69
2024/04/19 11:21:38;;;;;;;3.30;3.10;;;8.80;99.90;;;;;;5489235;26;20491;-69
2024/04/19 11:24:09;;;;;;;3.30;3.10;;;8.80;99.90;;;;;;5489257;26;20498;-69
2024/04/19 11:26:37;;;;;;;2.83;2.63;;;8.90;99.90;;;;;;5489197;26;20419;-69
2024/04/19 11:29:05;;;;;;;2.60;2.40;;;9.10;99.90;;;;;;5489227;26;20447;-69
2024/04/19 11:31:34;;;;;;;1.90;1.80;;;9.30;99.90;;;;;;5488909;26;20455;-69
2024/04/19 11:34:02;;;;;;;2.20;2.10;;;9.40;99.90;;;;;;5488719;26;20455;-69
2024/04/19 11:36:30;;;;;;;1.50;1.40;;;9.30;99.90;;;;;;5488659;26;20832;-68
2024/04/19 11:38:59;;;;;;;1.77;1.37;;;9.30;99.90;;;;;;5488762;26;20447;-69
2024/04/19 11:41:30;;;;;;;1.37;1.27;;;9.00;99.90;;;;;;5488637;26;20506;-68
2024/04/19 11:43:59;;;;;;;1.33;1.23;;;8.90;99.90;;;;;;5489108;26;20958;-68
2024/04/19 11:46:28;;;;;;;1.20;1.10;;;8.90;99.90;;;;;;5488678;26;20439;-68
2024/04/19 11:48:58;;;;;;;1.30;1.20;;;8.90;99.90;;;;;;5488810;26;20514;-69
2024/04/19 11:51:28;;;;;;;1.10;1.00;;;9.00;99.90;;;;;;5488816;26;20470;-69
2024/04/19 11:53:56;;;;;;;1.40;1.30;;;9.10;99.90;;;;;;5488555;26;20455;-68
2024/04/19 11:56:24;;;;;;;1.93;1.30;;;9.20;99.90;;;;;;5488699;26;20830;-69
2024/04/19 11:58:55;;;;;;;1.50;1.37;;;9.20;99.90;;;;;;5488712;26;20493;-69
2024/04/19 12:01:25;;;;;;;1.20;1.10;;;9.10;99.90;;;;;;5488637;26;20483;-68
2024/04/19 12:03:53;;;;;;;1.60;1.50;;;9.10;99.90;;;;;;5488564;26;20548;-69
2024/04/19 12:06:21;;;;;;;1.63;1.53;;;9.10;99.90;;;;;;5488460;26;20898;-69
2024/04/19 12:08:49;;;;;;;2.37;1.43;;;9.10;99.90;;;;;;5488265;26;21125;-69
2024/04/19 12:11:18;;;;;;;2.53;2.33;;;8.90;99.90;;;;;;5488433;26;20812;-69
2024/04/19 12:13:48;;;;;;;2.30;2.10;;;9.00;99.90;;;;;;5488601;26;20447;-69
2024/04/19 12:16:19;;;;;;;2.20;2.03;;;8.90;99.90;;;;;;5492072;26;20875;-69
2024/04/19 12:18:47;;;;;;;2.30;2.20;;;8.90;99.90;;;;;;5492015;26;20483;-69
2024/04/19 12:21:15;;;;;;;1.93;1.83;;;8.80;99.90;;;;;;5492014;26;20447;-69
2024/04/19 12:23:44;;;;;;;1.30;1.20;;;8.70;99.90;;;;;;5492020;26;20439;-69
2024/04/19 12:26:13;;;;;;;1.40;1.30;;;8.80;99.90;;;;;;5491915;26;20454;-69
2024/04/19 12:28:41;;;;;;;1.20;0.90;;;8.80;99.90;;;;;;5491781;26;20426;-69
2024/04/19 12:31:09;;;;;;;0.90;0.80;;;8.70;99.90;;;;;;5491872;26;20439;-68
2024/04/19 12:33:41;;;;;;;1.00;0.90;;;8.70;99.90;;;;;;5492242;26;20748;-69
2024/04/19 12:36:09;;;;;;;1.10;0.80;;;8.70;99.90;;;;;;5491602;26;20439;-69
2024/04/19 12:38:37;;;;;;;0.70;0.60;;;8.70;99.90;;;;;;5491584;26;20450;-69
2024/04/19 12:41:06;;;;;;;0.70;0.70;;;8.80;99.90;;;;;;5491699;26;20526;-69
2024/04/19 12:43:34;;;;;;;0.70;0.50;;;8.50;99.90;;;;;;5491827;26;20481;-69
2024/04/19 12:46:03;;;;;;;1.43;0.80;;;8.40;99.90;;;;;;5491644;26;20442;-69
2024/04/19 12:48:31;;;;;;;0.63;0.60;;;8.40;99.90;;;;;;5491546;26;20485;-69
2024/04/19 12:51:02;;;;;;;0.90;0.90;;;8.30;99.90;;;;;;5491431;26;20502;-69
2024/04/19 12:53:30;;;;;;;0.70;0.70;;;8.40;99.90;;;;;;5491563;26;20554;-69
2024/04/19 12:55:58;;;;;;;1.00;0.90;;;8.40;99.90;;;;;;5491440;26;20484;-69
2024/04/19 12:58:27;;;;;;;1.20;0.93;;;8.30;99.90;;;;;;5491468;26;20447;-69
2024/04/19 13:01:00;;;;;;;1.00;0.90;;;8.30;99.90;;;;;;5491389;26;20465;-70
2024/04/19 13:03:28;;;;;;;1.03;0.93;;;8.40;99.90;;;;;;5491408;26;20782;-69
2024/04/19 13:05:56;;;;;;;1.10;1.00;;;8.40;99.90;;;;;;5491341;26;20455;-69
2024/04/19 13:08:27;;;;;;;1.30;1.17;;;8.40;99.90;;;;;;5491225;26;20443;-69